Time;durP1;ratioP1;P1;durP2;ratioP2;P2;SDS_P1;SDS_P2;PMS_P1;PMS_P2;Temp;Humidity;BMP_temperature;BMP_pressure;BME280_temperature;BME280_humidity;BME280_pressure;Samples;Min_cycle;Max_cycle;Signal;HPM_P1;HPM_P2
2023/03/06 00:01:09;;;;;;;;;;;;;;;6.19;51.73;99162.44;3108711;28;19991;-68
2023/03/06 00:02:39;;;;;;;;;;;;;;;6.17;51.72;99165.06;3108014;28;20361;-69
2023/03/06 00:04:12;;;;;;;;;;;;;;;6.15;51.45;99162.53;3108615;28;19926;-69
2023/03/06 00:05:43;;;;;;;;;;;;;;;6.14;51.58;99165.19;3108665;28;20336;-69
2023/03/06 00:07:15;;;;;;;;;;;;;;;6.13;51.39;99161.75;3108691;28;19925;-69
2023/03/06 00:08:47;;;;;;;;;;;;;;;6.13;51.50;99164.34;3108701;28;19926;-69
2023/03/06 00:10:20;;;;;;;;;;;;;;;6.10;51.53;99167.03;3108020;28;20027;-69
2023/03/06 00:11:52;;;;;;;;;;;;;;;6.09;51.60;99161.91;3108651;28;19925;-69
2023/03/06 00:13:25;;;;;;;;;;;;;;;6.08;51.31;99158.50;3110264;28;19925;-69
2023/03/06 00:14:55;;;;;;;;;;;;;;;6.10;51.29;99171.38;3119985;28;19983;-69
2023/03/06 00:16:27;;;;;;;;;;;;;;;6.07;51.34;99161.97;3120825;28;19925;-70
2023/03/06 00:17:58;;;;;;;;;;;;;;;6.04;51.45;99167.25;3120371;28;19929;-69
2023/03/06 00:19:31;;;;;;;;;;;;;;;6.04;51.54;99169.00;3120801;28;19951;-69
2023/03/06 00:21:06;;;;;;;;;;;;;;;5.98;51.60;99154.56;3120913;28;19925;-69
2023/03/06 00:22:37;;;;;;;;;;;;;;;6.02;51.71;99165.63;3120956;28;19925;-69
2023/03/06 00:24:10;;;;;;;;;;;;;;;6.04;51.63;99166.44;3120757;28;19951;-69
2023/03/06 00:25:43;;;;;;;;;;;;;;;6.05;51.58;99166.34;3120247;28;20364;-69
2023/03/06 00:27:14;;;;;;;;;;;;;;;6.04;51.49;99164.69;3120924;28;19983;-69
2023/03/06 00:28:46;;;;;;;;;;;;;;;6.05;51.43;99166.34;3120846;28;19975;-68
2023/03/06 00:30:18;;;;;;;;;;;;;;;6.05;51.54;99166.34;3120719;28;19932;-69
2023/03/06 00:31:50;;;;;;;;;;;;;;;6.03;51.30;99170.72;3120469;28;19925;-69
2023/03/06 00:33:21;;;;;;;;;;;;;;;6.02;51.26;99173.38;3120857;28;19936;-68
2023/03/06 00:34:52;;;;;;;;;;;;;;;6.01;51.24;99169.97;3120649;28;19925;-69
2023/03/06 00:36:24;;;;;;;;;;;;;;;6.04;51.43;99174.19;3120697;28;19940;-69
2023/03/06 00:37:56;;;;;;;;;;;;;;;6.04;51.50;99177.59;3120563;28;19986;-68
2023/03/06 00:39:29;;;;;;;;;;;;;;;6.04;51.33;99171.59;3116052;28;20076;-68
2023/03/06 00:41:05;;;;;;;;;;;;;;;6.06;51.57;99174.94;3115228;28;19925;-69
2023/03/06 00:42:37;;;;;;;;;;;;;;;6.06;51.45;99180.13;3120762;28;19925;-69
2023/03/06 00:44:08;;;;;;;;;;;;;;;6.05;51.50;99187.03;3120610;28;19950;-69
2023/03/06 00:45:39;;;;;;;;;;;;;;;6.02;51.54;99181.13;3120669;28;19925;-69
2023/03/06 00:47:10;;;;;;;;;;;;;;;6.03;51.57;99182.81;3118410;28;19948;-68
2023/03/06 00:48:43;;;;;;;;;;;;;;;6.02;51.42;99181.13;3108613;28;20367;-69
2023/03/06 00:50:14;;;;;;;;;;;;;;;5.98;51.45;99180.41;3107819;28;20355;-68
2023/03/06 00:51:45;;;;;;;;;;;;;;;5.98;51.63;99182.16;3100922;28;19933;-67
2023/03/06 00:53:17;;;;;;;;;;;;;;;5.97;51.55;99186.47;3096542;28;19933;-69
2023/03/06 00:54:50;;;;;;;;;;;;;;;5.94;51.75;99184.00;3095827;28;19933;-68
2023/03/06 00:56:21;;;;;;;;;;;;;;;5.94;51.50;99181.41;3096054;28;19926;-68
2023/03/06 00:57:52;;;;;;;;;;;;;;;5.93;51.37;99179.72;3096062;28;19989;-69
2023/03/06 00:59:24;;;;;;;;;;;;;;;5.91;51.50;99179.75;3096305;28;20431;-68
2023/03/06 01:00:55;;;;;;;;;;;;;;;5.92;51.42;99183.19;3096332;28;19940;-69
2023/03/06 01:02:26;;;;;;;;;;;;;;;5.91;51.37;99184.91;3107353;28;20023;-70
2023/03/06 01:03:58;;;;;;;;;;;;;;;5.92;51.50;99180.59;3108312;28;20008;-70
2023/03/06 01:05:30;;;;;;;;;;;;;;;5.92;51.47;99180.59;3108486;28;19952;-69
2023/03/06 01:07:00;;;;;;;;;;;;;;;5.96;51.59;99181.38;3108304;28;19976;-71
2023/03/06 01:08:32;;;;;;;;;;;;;;;5.95;51.63;99183.13;3108286;28;19926;-69
2023/03/06 01:10:04;;;;;;;;;;;;;;;5.95;51.44;99177.09;3107698;28;19988;-69
2023/03/06 01:11:36;;;;;;;;;;;;;;;5.94;51.45;99181.41;3108360;28;19930;-70
2023/03/06 01:13:07;;;;;;;;;;;;;;;5.94;51.39;99178.81;3108304;28;19926;-70
2023/03/06 01:14:38;;;;;;;;;;;;;;;5.93;51.37;99180.56;3119678;28;19959;-69
2023/03/06 01:16:12;;;;;;;;;;;;;;;5.94;51.50;99181.41;3120219;28;20302;-70
2023/03/06 01:17:43;;;;;;;;;;;;;;;5.90;51.57;99172.91;3120085;28;19929;-70
2023/03/06 01:19:14;;;;;;;;;;;;;;;5.90;51.39;99175.47;3120620;28;19929;-70
2023/03/06 01:20:46;;;;;;;;;;;;;;;5.90;51.33;99174.63;3120552;28;20324;-70
2023/03/06 01:22:17;;;;;;;;;;;;;;;5.90;51.52;99179.81;3120479;28;19937;-69
2023/03/06 01:23:49;;;;;;;;;;;;;;;5.90;51.47;99170.31;3119736;28;20024;-68
2023/03/06 01:25:21;;;;;;;;;;;;;;;5.90;51.43;99179.81;3120783;28;19980;-70
2023/03/06 01:26:52;;;;;;;;;;;;;;;5.90;51.31;99177.22;3122560;28;19925;-68
2023/03/06 01:28:24;;;;;;;;;;;;;;;5.89;51.57;99178.13;3122752;28;19983;-69
2023/03/06 01:29:56;;;;;;;;;;;;;;;5.88;51.48;99179.84;3122442;28;19960;-68
2023/03/06 01:31:27;;;;;;;;;;;;;;;5.89;51.50;99180.72;3122424;28;19929;-69
2023/03/06 01:32:58;;;;;;;;;;;;;;;5.88;51.34;99179.84;3122784;28;19933;-68
2023/03/06 01:34:29;;;;;;;;;;;;;;;5.90;51.46;99174.63;3112092;28;20048;-69
2023/03/06 01:36:03;;;;;;;;;;;;;;;5.90;51.54;99183.22;3110447;28;19929;-69
2023/03/06 01:37:35;;;;;;;;;;;;;;;5.93;51.44;99179.72;3110805;28;19979;-69
2023/03/06 01:39:07;;;;;;;;;;;;;;;5.90;51.44;99177.22;3109930;28;20020;-69
2023/03/06 01:40:40;;;;;;;;;;;;;;;5.88;51.43;99179.84;3114315;28;19933;-70
2023/03/06 01:42:12;;;;;;;;;;;;;;;5.88;51.61;99179.00;3122451;28;19996;-68
2023/03/06 01:43:45;;;;;;;;;;;;;;;5.88;51.51;99179.00;3118185;28;19983;-69
2023/03/06 01:45:33;;;;;;;;;;;;;;;5.87;51.50;99182.50;3110461;28;20286;-68
2023/03/06 01:47:05;;;;;;;;;;;;;;;5.88;51.70;99184.19;3109751;28;19926;-68
2023/03/06 01:48:36;;;;;;;;;;;;;;;5.86;51.76;99191.16;3110657;28;19925;-69
2023/03/06 01:50:09;;;;;;;;;;;;;;;5.86;51.69;99184.25;3110039;28;20325;-68
2023/03/06 01:51:43;;;;;;;;;;;;;;;5.86;51.86;99186.84;3103651;28;19930;-68
2023/03/06 01:53:14;;;;;;;;;;;;;;;5.86;51.98;99192.00;3098217;28;19976;-68
2023/03/06 01:54:49;;;;;;;;;;;;;;;5.85;52.03;99184.28;3097778;28;19929;-70
2023/03/06 01:56:22;;;;;;;;;;;;;;;5.86;51.95;99180.81;3097958;28;19984;-69
2023/03/06 01:57:56;;;;;;;;;;;;;;;5.85;51.84;99192.88;3098112;28;19929;-69
2023/03/06 01:59:29;;;;;;;;;;;;;;;5.84;51.94;99192.94;3098083;28;20353;-69
2023/03/06 02:01:00;;;;;;;;;;;;;;;5.86;51.78;99180.81;3097648;28;19930;-68
2023/03/06 02:02:32;;;;;;;;;;;;;;;5.86;51.96;99191.16;3102484;28;19980;-68
2023/03/06 02:04:04;;;;;;;;;;;;;;;5.87;51.89;99203.19;3110034;28;19929;-68
2023/03/06 02:05:36;;;;;;;;;;;;;;;5.87;51.90;99198.00;3110339;28;19937;-68
2023/03/06 02:07:07;;;;;;;;;;;;;;;5.87;51.89;99203.19;3110017;28;19936;-69
2023/03/06 02:08:39;;;;;;;;;;;;;;;5.84;51.78;99198.13;3109940;28;19930;-69
2023/03/06 02:10:12;;;;;;;;;;;;;;;5.81;52.00;99200.81;3109947;28;19953;-66
2023/03/06 02:11:45;;;;;;;;;;;;;;;5.81;51.89;99209.41;3110010;28;19949;-68
2023/03/06 02:13:16;;;;;;;;;;;;;;;5.80;52.07;99206.88;3110596;28;19929;-68
2023/03/06 02:14:49;;;;;;;;;;;;;;;5.79;52.12;99210.34;3122200;28;19956;-68
2023/03/06 02:16:21;;;;;;;;;;;;;;;5.75;52.05;99211.38;3121733;28;20398;-69
2023/03/06 02:17:52;;;;;;;;;;;;;;;5.69;52.07;99205.50;3120036;28;20012;-69
2023/03/06 02:19:32;;;;;;;;;;;;;;;5.63;52.37;99205.72;3108769;28;19929;-69
2023/03/06 02:21:06;;;;;;;;;;;;;;;5.62;52.36;99209.22;3109352;28;20578;-69
2023/03/06 02:22:42;;;;;;;;;;;;;;;5.58;52.42;99217.94;3109615;28;19926;-69
2023/03/06 02:24:21;;;;;;;;;;;;;;;5.58;52.50;99210.19;3109437;28;19996;-69
2023/03/06 02:25:54;;;;;;;;;;;;;;;5.56;52.48;99217.16;3109501;28;20440;-69
2023/03/06 02:27:26;;;;;;;;;;;;;;;5.54;52.75;99210.38;3109792;28;19940;-69
2023/03/06 02:28:58;;;;;;;;;;;;;;;5.51;52.61;99215.63;3109817;28;19976;-69
2023/03/06 02:30:30;;;;;;;;;;;;;;;5.47;52.89;99209.72;3108951;28;19937;-69
2023/03/06 02:32:01;;;;;;;;;;;;;;;5.45;53.06;99211.53;3109654;28;20492;-69
2023/03/06 02:33:33;;;;;;;;;;;;;;;5.44;52.92;99214.97;3109805;28;20423;-69
2023/03/06 02:35:05;;;;;;;;;;;;;;;5.42;53.20;99212.47;3109320;28;20398;-70
2023/03/06 02:36:39;;;;;;;;;;;;;;;5.39;53.11;99214.31;3109473;28;19926;-68
2023/03/06 02:38:13;;;;;;;;;;;;;;;5.39;53.23;99216.88;3107973;28;19968;-69
2023/03/06 02:39:46;;;;;;;;;;;;;;;5.36;53.06;99222.16;3108971;28;20394;-70
2023/03/06 02:41:19;;;;;;;;;;;;;;;5.34;53.20;99223.94;3109509;28;20318;-69
2023/03/06 02:42:50;;;;;;;;;;;;;;;5.31;53.16;99217.13;3097951;28;19984;-70
2023/03/06 02:44:22;;;;;;;;;;;;;;;5.32;53.31;99223.97;3108827;28;19932;-69
2023/03/06 02:45:54;;;;;;;;;;;;;;;5.29;53.37;99220.66;3109158;28;19937;-68
2023/03/06 02:47:24;;;;;;;;;;;;;;;5.29;53.31;99223.25;3109764;28;19934;-69
2023/03/06 02:48:56;;;;;;;;;;;;;;;5.29;53.22;99216.31;3109121;28;19929;-70
2023/03/06 02:50:28;;;;;;;;;;;;;;;5.28;53.26;99214.66;3108796;28;19984;-70
2023/03/06 02:51:58;;;;;;;;;;;;;;;5.27;53.44;99217.31;3107959;28;20306;-70
2023/03/06 02:53:30;;;;;;;;;;;;;;;5.24;53.40;99216.50;3109169;28;19975;-69
2023/03/06 02:55:02;;;;;;;;;;;;;;;5.23;53.36;99219.13;3097378;28;19929;-71
2023/03/06 02:56:33;;;;;;;;;;;;;;;5.24;53.53;99218.25;3108631;28;19932;-70
2023/03/06 02:58:05;;;;;;;;;;;;;;;5.22;53.49;99223.44;3109278;28;20008;-70
2023/03/06 02:59:36;;;;;;;;;;;;;;;5.22;53.40;99225.19;3109341;28;20419;-69
2023/03/06 03:01:07;;;;;;;;;;;;;;;5.22;53.37;99225.19;3108943;28;20060;-69
2023/03/06 03:02:38;;;;;;;;;;;;;;;5.21;53.47;99228.66;3109073;28;19984;-70
2023/03/06 03:04:10;;;;;;;;;;;;;;;5.20;53.55;99226.97;3109051;28;19982;-70
2023/03/06 03:05:42;;;;;;;;;;;;;;;5.19;53.57;99226.13;3109549;28;19925;-70
2023/03/06 03:07:13;;;;;;;;;;;;;;;5.17;53.67;99224.47;3109481;28;20373;-71
2023/03/06 03:08:45;;;;;;;;;;;;;;;5.15;53.58;99227.13;3109125;28;19983;-71
2023/03/06 03:10:16;;;;;;;;;;;;;;;5.15;53.69;99226.28;3109158;28;19934;-70
2023/03/06 03:11:49;;;;;;;;;;;;;;;5.14;53.68;99225.41;3108794;28;19925;-70
2023/03/06 03:13:21;;;;;;;;;;;;;;;5.17;53.62;99227.06;3110700;28;19925;-69
2023/03/06 03:14:53;;;;;;;;;;;;;;;5.16;53.44;99226.22;3118355;28;20353;-69
2023/03/06 03:16:24;;;;;;;;;;;;;;;5.17;53.52;99227.06;3109015;28;20365;-69
2023/03/06 03:17:55;;;;;;;;;;;;;;;5.18;53.62;99226.19;3108783;28;19955;-69
2023/03/06 03:19:26;;;;;;;;;;;;;;;5.17;53.61;99221.91;3109110;28;19929;-69
2023/03/06 03:20:58;;;;;;;;;;;;;;;5.18;53.62;99219.28;3109123;28;19975;-69
2023/03/06 03:22:30;;;;;;;;;;;;;;;5.18;53.63;99223.59;3108659;28;19929;-71
2023/03/06 03:24:00;;;;;;;;;;;;;;;5.16;53.66;99215.91;3108685;28;20335;-69
2023/03/06 03:25:32;;;;;;;;;;;;;;;5.16;53.72;99220.22;3109220;28;19925;-70
2023/03/06 03:27:04;;;;;;;;;;;;;;;5.16;53.57;99213.31;3109011;28;19932;-70
2023/03/06 03:28:35;;;;;;;;;;;;;;;5.14;53.73;99217.69;3109024;28;19937;-70
2023/03/06 03:30:08;;;;;;;;;;;;;;;5.11;53.77;99217.78;3108433;28;19926;-70
2023/03/06 03:31:39;;;;;;;;;;;;;;;5.11;53.76;99224.69;3109106;28;19930;-70
2023/03/06 03:33:11;;;;;;;;;;;;;;;5.12;53.76;99221.22;3109010;28;19925;-70
2023/03/06 03:34:43;;;;;;;;;;;;;;;5.11;53.90;99220.34;3109063;28;19925;-69
2023/03/06 03:36:14;;;;;;;;;;;;;;;5.10;53.89;99226.41;3108631;28;20417;-69
2023/03/06 03:37:46;;;;;;;;;;;;;;;5.10;53.93;99220.41;3108324;28;19929;-67
2023/03/06 03:39:18;;;;;;;;;;;;;;;5.10;53.99;99223.84;3108777;28;19929;-68
2023/03/06 03:40:49;;;;;;;;;;;;;;;5.09;54.16;99224.75;3108376;28;19933;-68
2023/03/06 03:42:22;;;;;;;;;;;;;;;5.10;54.19;99218.69;3108939;28;20004;-69
2023/03/06 03:43:52;;;;;;;;;;;;;;;5.11;54.15;99224.69;3109026;28;19988;-69
2023/03/06 03:45:24;;;;;;;;;;;;;;;5.11;54.01;99217.78;3108460;28;20008;-67
2023/03/06 03:46:56;;;;;;;;;;;;;;;5.11;54.09;99216.94;3108698;28;19933;-69
2023/03/06 03:48:26;;;;;;;;;;;;;;;5.12;54.21;99221.22;3108531;28;19925;-69
2023/03/06 03:49:58;;;;;;;;;;;;;;;5.10;54.25;99216.09;3108577;28;19999;-68
2023/03/06 03:51:29;;;;;;;;;;;;;;;5.07;54.32;99211.03;3103444;28;19936;-68
2023/03/06 03:53:01;;;;;;;;;;;;;;;5.05;54.36;99212.81;3104236;28;19926;-68
2023/03/06 03:54:32;;;;;;;;;;;;;;;5.03;54.30;99212.03;3108986;28;19932;-69
2023/03/06 03:56:03;;;;;;;;;;;;;;;5.00;54.33;99214.72;3108635;28;19983;-69
2023/03/06 03:57:38;;;;;;;;;;;;;;;4.98;54.42;99213.91;3108112;28;19930;-69
2023/03/06 03:59:10;;;;;;;;;;;;;;;4.94;54.52;99213.16;3108289;28;20015;-70
2023/03/06 04:00:41;;;;;;;;;;;;;;;4.93;54.47;99220.94;3108836;28;20409;-70
2023/03/06 04:02:12;;;;;;;;;;;;;;;4.90;54.63;99224.47;3107930;28;20326;-68
2023/03/06 04:03:44;;;;;;;;;;;;;;;4.86;54.69;99215.13;3108520;28;19936;-68
2023/03/06 04:05:15;;;;;;;;;;;;;;;4.85;54.66;99217.75;3109076;28;19988;-69
2023/03/06 04:06:47;;;;;;;;;;;;;;;4.84;54.83;99221.25;3108324;28;19988;-69
2023/03/06 04:08:18;;;;;;;;;;;;;;;4.84;54.87;99223.81;3108472;28;19936;-69
2023/03/06 04:09:49;;;;;;;;;;;;;;;4.84;54.81;99221.25;3108432;28;19925;-69
2023/03/06 04:11:21;;;;;;;;;;;;;;;4.85;54.76;99225.50;3108579;28;19925;-69
2023/03/06 04:12:54;;;;;;;;;;;;;;;4.88;54.71;99225.41;3108424;28;20444;-68
2023/03/06 04:14:25;;;;;;;;;;;;;;;4.87;54.80;99228.88;3108202;28;19937;-68
2023/03/06 04:15:57;;;;;;;;;;;;;;;4.86;54.64;99233.19;3108533;28;20421;-68
2023/03/06 04:17:29;;;;;;;;;;;;;;;4.89;54.73;99237.44;3108343;28;19972;-69
2023/03/06 04:18:59;;;;;;;;;;;;;;;4.88;54.75;99235.72;3108300;28;20476;-69
2023/03/06 04:20:31;;;;;;;;;;;;;;;4.90;54.59;99247.69;3108370;28;20028;-68
2023/03/06 04:22:03;;;;;;;;;;;;;;;4.91;54.35;99243.34;3107912;28;19929;-69
2023/03/06 04:23:34;;;;;;;;;;;;;;;4.92;54.54;99243.31;3108735;28;19943;-68
2023/03/06 04:25:05;;;;;;;;;;;;;;;4.93;54.64;99246.75;3108551;28;19987;-68
2023/03/06 04:26:37;;;;;;;;;;;;;;;4.93;54.59;99244.16;3108249;28;19933;-68
2023/03/06 04:28:10;;;;;;;;;;;;;;;4.93;54.53;99242.44;3108552;28;19948;-69
2023/03/06 04:29:41;;;;;;;;;;;;;;;4.90;54.38;99247.69;3108046;28;20321;-68
2023/03/06 04:31:13;;;;;;;;;;;;;;;4.88;54.53;99246.91;3108165;28;19979;-68
2023/03/06 04:32:44;;;;;;;;;;;;;;;4.87;54.47;99249.53;3107831;28;19936;-69
2023/03/06 04:34:15;;;;;;;;;;;;;;;4.86;54.62;99247.84;3108307;28;19925;-69
2023/03/06 04:35:47;;;;;;;;;;;;;;;4.82;54.60;99256.53;3107644;28;19930;-69
2023/03/06 04:37:20;;;;;;;;;;;;;;;4.79;54.74;99260.94;3108171;28;19925;-68
2023/03/06 04:38:50;;;;;;;;;;;;;;;4.78;54.57;99259.22;3108192;28;19925;-69
2023/03/06 04:40:23;;;;;;;;;;;;;;;4.77;54.72;99252.38;3108524;28;19933;-68
2023/03/06 04:41:55;;;;;;;;;;;;;;;4.75;54.97;99259.31;3108369;28;19938;-70
2023/03/06 04:43:27;;;;;;;;;;;;;;;4.74;54.82;99249.91;3108008;28;19936;-70
2023/03/06 04:44:58;;;;;;;;;;;;;;;4.74;54.79;99257.63;3107891;28;20368;-69
2023/03/06 04:46:30;;;;;;;;;;;;;;;4.74;54.82;99261.97;3108131;28;20020;-68
2023/03/06 04:48:01;;;;;;;;;;;;;;;4.73;55.05;99261.13;3108295;28;19991;-69
2023/03/06 04:49:33;;;;;;;;;;;;;;;4.72;55.15;99261.97;3108130;28;19926;-67
2023/03/06 04:51:04;;;;;;;;;;;;;;;4.74;55.06;99267.13;3107067;28;19980;-68
2023/03/06 04:52:35;;;;;;;;;;;;;;;4.73;55.21;99270.56;3108137;28;19973;-69
2023/03/06 04:54:07;;;;;;;;;;;;;;;4.71;55.17;99268.03;3096055;28;19929;-70
2023/03/06 04:55:39;;;;;;;;;;;;;;;4.71;55.04;99272.38;3107877;28;19932;-69
2023/03/06 04:57:09;;;;;;;;;;;;;;;4.71;55.31;99270.63;3108409;28;20396;-68
2023/03/06 04:58:42;;;;;;;;;;;;;;;4.72;55.28;99269.72;3107811;28;19936;-68
2023/03/06 05:00:15;;;;;;;;;;;;;;;4.72;55.32;99272.31;3107775;28;19936;-68
2023/03/06 05:01:47;;;;;;;;;;;;;;;4.73;55.39;99274.00;3110348;28;19979;-70
2023/03/06 05:03:19;;;;;;;;;;;;;;;4.74;55.30;99274.84;3110475;28;19929;-68
2023/03/06 05:04:50;;;;;;;;;;;;;;;4.75;55.49;99277.38;3110863;28;19972;-69
2023/03/06 05:06:21;;;;;;;;;;;;;;;4.73;55.34;99271.44;3110213;28;19992;-72
2023/03/06 05:07:53;;;;;;;;;;;;;;;4.75;55.41;99276.53;3110666;28;20384;-71
2023/03/06 05:09:23;;;;;;;;;;;;;;;4.71;55.41;99283.53;3110532;28;19930;-71
2023/03/06 05:10:56;;;;;;;;;;;;;;;4.71;55.50;99288.69;3110613;28;20483;-69
2023/03/06 05:12:26;;;;;;;;;;;;;;;4.72;55.60;99292.09;3110225;28;20307;-70
2023/03/06 05:13:59;;;;;;;;;;;;;;;4.71;55.64;99280.94;3116414;28;19932;-69
2023/03/06 05:15:31;;;;;;;;;;;;;;;4.73;55.62;99291.19;3115916;28;20461;-65
2023/03/06 05:17:02;;;;;;;;;;;;;;;4.74;55.72;99287.75;3110530;28;20472;-67
2023/03/06 05:18:34;;;;;;;;;;;;;;;4.73;55.61;99288.63;3109865;28;20373;-68
2023/03/06 05:20:06;;;;;;;;;;;;;;;4.76;55.74;99294.56;3109875;28;19926;-67
2023/03/06 05:21:37;;;;;;;;;;;;;;;4.79;55.67;99301.34;3110014;28;19934;-68
2023/03/06 05:23:09;;;;;;;;;;;;;;;4.81;55.86;99288.41;3109959;28;19988;-67
2023/03/06 05:24:40;;;;;;;;;;;;;;;4.81;55.73;99296.97;3110498;28;19957;-66
2023/03/06 05:26:13;;;;;;;;;;;;;;;4.83;55.86;99296.94;3110286;28;19932;-66
2023/03/06 05:27:45;;;;;;;;;;;;;;;4.82;55.78;99295.25;3110111;28;19929;-67
2023/03/06 05:29:18;;;;;;;;;;;;;;;4.83;55.88;99307.28;3109797;28;19991;-65
2023/03/06 05:30:49;;;;;;;;;;;;;;;4.81;55.87;99301.31;3110652;28;20345;-67
2023/03/06 05:32:20;;;;;;;;;;;;;;;4.79;55.90;99304.78;3109971;28;20317;-67
2023/03/06 05:33:52;;;;;;;;;;;;;;;4.82;55.98;99308.13;3110113;28;19944;-68
2023/03/06 05:35:23;;;;;;;;;;;;;;;4.83;55.96;99313.28;3110221;28;19979;-64
2023/03/06 05:36:55;;;;;;;;;;;;;;;4.86;56.10;99320.09;3110552;28;19929;-67
2023/03/06 05:38:27;;;;;;;;;;;;;;;4.87;55.93;99321.75;3110161;28;19930;-63
2023/03/06 05:39:58;;;;;;;;;;;;;;;4.87;56.12;99314.00;3110008;28;19937;-67
2023/03/06 05:41:30;;;;;;;;;;;;;;;4.88;56.12;99319.16;3110491;28;19930;-65
2023/03/06 05:43:01;;;;;;;;;;;;;;;4.90;56.00;99327.66;3109703;28;19929;-63
2023/03/06 05:44:35;;;;;;;;;;;;;;;4.89;56.19;99327.72;3109263;28;20357;-63
2023/03/06 05:46:07;;;;;;;;;;;;;;;4.88;56.32;99323.44;3109850;28;20025;-64
2023/03/06 05:47:39;;;;;;;;;;;;;;;4.89;56.16;99327.72;3109563;28;20012;-64
2023/03/06 05:49:10;;;;;;;;;;;;;;;4.90;56.34;99329.41;3110044;28;19932;-65
2023/03/06 05:50:42;;;;;;;;;;;;;;;4.92;56.46;99330.22;3109620;28;19925;-64
2023/03/06 05:52:16;;;;;;;;;;;;;;;4.93;56.51;99332.72;3099570;28;20032;-66
2023/03/06 05:53:47;;;;;;;;;;;;;;;4.94;56.48;99337.03;3106387;28;20035;-64
2023/03/06 05:55:20;;;;;;;;;;;;;;;4.94;56.38;99338.72;3104864;28;19934;-65
2023/03/06 05:56:52;;;;;;;;;;;;;;;4.96;56.35;99339.53;3109260;28;19985;-65
2023/03/06 05:58:24;;;;;;;;;;;;;;;4.93;56.54;99345.63;3108819;28;19979;-65
2023/03/06 05:59:56;;;;;;;;;;;;;;;4.93;56.44;99337.91;3109270;28;20008;-65
2023/03/06 06:01:29;;;;;;;;;;;;;;;4.94;56.35;99341.31;3108939;28;19930;-66
2023/03/06 06:03:01;;;;;;;;;;;;;;;4.96;56.48;99342.97;3109101;28;19926;-65
2023/03/06 06:04:33;;;;;;;;;;;;;;;4.99;56.46;99347.19;3109536;28;20025;-65
2023/03/06 06:06:04;;;;;;;;;;;;;;;5.02;56.53;99344.53;3109530;28;19936;-64
2023/03/06 06:07:36;;;;;;;;;;;;;;;5.08;56.27;99353.81;3109666;28;19932;-64
2023/03/06 06:09:08;;;;;;;;;;;;;;;5.12;56.20;99350.28;3109847;28;20004;-64
2023/03/06 06:10:40;;;;;;;;;;;;;;;5.19;56.23;99347.44;3109576;28;19929;-64
2023/03/06 06:12:12;;;;;;;;;;;;;;;5.25;56.14;99349.00;3109746;28;19926;-64
2023/03/06 06:13:43;;;;;;;;;;;;;;;5.33;56.04;99351.34;3113699;28;19979;-63
2023/03/06 06:15:16;;;;;;;;;;;;;;;5.39;55.98;99349.41;3113665;28;19991;-64
2023/03/06 06:16:48;;;;;;;;;;;;;;;5.45;55.77;99345.81;3109917;28;19925;-64
2023/03/06 06:18:20;;;;;;;;;;;;;;;5.52;55.65;99347.28;3109993;28;19929;-64
2023/03/06 06:19:51;;;;;;;;;;;;;;;5.59;55.60;99346.22;3109222;28;19932;-65
2023/03/06 06:21:23;;;;;;;;;;;;;;;5.68;55.38;99348.50;3109963;28;19975;-65
2023/03/06 06:22:54;;;;;;;;;;;;;;;5.77;55.36;99346.47;3109639;28;19933;-67
2023/03/06 06:24:26;;;;;;;;;;;;;;;5.87;55.20;99350.47;3108334;28;19996;-68
2023/03/06 06:25:59;;;;;;;;;;;;;;;5.97;55.13;99353.63;3107661;28;19926;-70
2023/03/06 06:27:30;;;;;;;;;;;;;;;6.05;54.71;99356.78;3109092;28;19929;-70
2023/03/06 06:29:03;;;;;;;;;;;;;;;6.14;54.54;99353.91;3108929;28;19925;-69
2023/03/06 06:30:37;;;;;;;;;;;;;;;6.25;54.52;99356.97;3109149;28;19926;-68
2023/03/06 06:32:08;;;;;;;;;;;;;;;6.43;54.48;99362.41;3109041;28;20274;-72
2023/03/06 06:33:39;;;;;;;;;;;;;;;6.58;54.23;99362.69;3108787;28;19929;-72
2023/03/06 06:35:11;;;;;;;;;;;;;;;6.75;54.08;99356.91;3109403;28;19925;-70
2023/03/06 06:36:42;;;;;;;;;;;;;;;6.94;54.11;99357.06;3109695;28;19948;-71
2023/03/06 06:38:14;;;;;;;;;;;;;;;7.13;53.82;99358.94;3109380;28;20405;-72
2023/03/06 06:39:45;;;;;;;;;;;;;;;7.30;53.54;99361.75;3109244;28;20299;-70
2023/03/06 06:41:17;;;;;;;;;;;;;;;7.45;53.63;99360.28;3109275;28;20318;-69
2023/03/06 06:42:49;;;;;;;;;;;;;;;7.66;53.29;99363.78;3109143;28;19937;-71
2023/03/06 06:44:21;;;;;;;;;;;;;;;7.91;53.26;99359.28;3109328;28;19926;-70
2023/03/06 06:45:54;;;;;;;;;;;;;;;8.23;53.14;99357.09;3110010;28;19929;-75
2023/03/06 06:47:25;;;;;;;;;;;;;;;8.59;52.70;99366.84;3110126;28;19925;-72
2023/03/06 06:48:58;;;;;;;;;;;;;;;8.91;52.10;99365.41;3109510;28;19936;-70
2023/03/06 06:50:30;;;;;;;;;;;;;;;9.31;51.87;99356.59;3107979;28;19929;-67
2023/03/06 06:52:01;;;;;;;;;;;;;;;9.71;51.19;99359.06;3103607;28;19932;-66
2023/03/06 06:53:33;;;;;;;;;;;;;;;10.04;50.04;99366.97;3109629;28;19925;-65
2023/03/06 06:55:05;;;;;;;;;;;;;;;10.42;49.58;99369.44;3109281;28;19925;-67
2023/03/06 06:56:37;;;;;;;;;;;;;;;10.77;49.18;99366.75;3108683;28;19987;-66
2023/03/06 06:58:08;;;;;;;;;;;;;;;11.08;48.06;99372.00;3108105;28;19926;-66
2023/03/06 06:59:40;;;;;;;;;;;;;;;11.38;47.36;99368.63;3108944;28;19929;-67
2023/03/06 07:01:13;;;;;;;;;;;;;;;11.79;47.07;99362.84;3109312;28;20569;-67
2023/03/06 07:02:47;;;;;;;;;;;;;;;12.24;46.68;99358.53;3109140;28;19976;-66
2023/03/06 07:04:19;;;;;;;;;;;;;;;12.58;45.83;99362.59;3108681;28;19984;-66
2023/03/06 07:05:54;;;;;;;;;;;;;;;12.82;44.71;99362.03;3109226;28;19932;-67
2023/03/06 07:07:25;;;;;;;;;;;;;;;13.01;43.85;99364.34;3109636;28;19960;-68
2023/03/06 07:08:57;;;;;;;;;;;;;;;13.29;43.40;99360.88;3109393;28;19929;-68
2023/03/06 07:10:28;;;;;;;;;;;;;;;13.61;43.24;99351.81;3109032;28;19991;-68
2023/03/06 07:12:00;;;;;;;;;;;;;;;13.98;42.99;99361.66;3108619;28;19930;-67
2023/03/06 07:13:32;;;;;;;;;;;;;;;14.34;42.60;99359.19;3111518;28;19930;-67
2023/03/06 07:15:03;;;;;;;;;;;;;;;14.61;41.34;99365.28;3115294;28;19926;-66
2023/03/06 07:16:36;;;;;;;;;;;;;;;14.75;41.00;99367.81;3109209;28;19932;-68
2023/03/06 07:18:07;;;;;;;;;;;;;;;14.83;39.71;99372.53;3109000;28;19925;-68
2023/03/06 07:19:38;;;;;;;;;;;;;;;15.09;39.88;99370.69;3108723;28;19929;-68
2023/03/06 07:21:10;;;;;;;;;;;;;;;15.19;38.83;99374.34;3108867;28;19933;-67
2023/03/06 07:22:42;;;;;;;;;;;;;;;15.37;38.85;99366.94;3109037;28;19973;-67
2023/03/06 07:24:13;;;;;;;;;;;;;;;15.72;38.60;99379.31;3107460;28;19925;-68
2023/03/06 07:25:45;;;;;;;;;;;;;;;15.93;37.95;99373.31;3108377;28;19933;-68
2023/03/06 07:27:16;;;;;;;;;;;;;;;15.81;36.81;99370.78;3108396;28;19994;-65
2023/03/06 07:28:51;;;;;;;;;;;;;;;15.89;36.56;99378.94;3108866;28;19926;-64
2023/03/06 07:30:23;;;;;;;;;;;;;;;15.73;35.76;99381.00;3107894;28;19975;-68
2023/03/06 07:31:56;;;;;;;;;;;;;;;15.95;36.19;99377.66;3108665;28;19934;-72
2023/03/06 07:33:27;;;;;;;;;;;;;;;16.18;35.68;99376.78;3109078;28;19929;-68
2023/03/06 07:34:59;;;;;;;;;;;;;;;16.46;35.55;99379.94;3108409;28;20325;-66
2023/03/06 07:36:31;;;;;;;;;;;;;;;16.66;35.16;99381.03;3108651;28;20322;-67
2023/03/06 07:38:02;;;;;;;;;;;;;;;16.70;34.81;99382.47;3108637;28;20326;-67
2023/03/06 07:39:34;;;;;;;;;;;;;;;16.85;34.60;99383.09;3108844;28;19930;-65
2023/03/06 07:41:08;;;;;;;;;;;;;;;17.06;34.49;99386.66;3108592;28;19929;-67
2023/03/06 07:42:40;;;;;;;;;;;;;;;17.37;34.63;99379.00;3109002;28;19933;-70
2023/03/06 07:44:11;;;;;;;;;;;;;;;17.54;33.92;99378.47;3108756;28;19930;-68
2023/03/06 07:45:44;;;;;;;;;;;;;;;17.71;33.66;99382.34;3108919;28;19929;-68
2023/03/06 07:47:16;;;;;;;;;;;;;;;17.79;33.49;99389.69;3108932;28;19929;-68
2023/03/06 07:48:48;;;;;;;;;;;;;;;17.81;32.90;99391.22;3108090;28;19987;-66
2023/03/06 07:50:20;;;;;;;;;;;;;;;17.61;32.70;99389.34;3108508;28;20303;-66
2023/03/06 07:51:51;;;;;;;;;;;;;;;17.37;32.26;99387.72;3100710;28;19984;-69
2023/03/06 07:53:23;;;;;;;;;;;;;;;17.13;32.55;99381.78;3108042;28;19940;-67
2023/03/06 07:54:55;;;;;;;;;;;;;;;17.04;32.89;99386.81;3108837;28;19999;-67
2023/03/06 07:56:26;;;;;;;;;;;;;;;17.04;33.19;99383.34;3108107;28;20165;-67
2023/03/06 07:57:58;;;;;;;;;;;;;;;17.24;33.27;99381.75;3108628;28;19932;-68
2023/03/06 07:59:29;;;;;;;;;;;;;;;17.45;33.28;99384.47;3109008;28;20000;-66
2023/03/06 08:01:03;;;;;;;;;;;;;;;17.57;32.38;99377.38;3108629;28;20161;-67
2023/03/06 08:02:36;;;;;;;;;;;;;;;17.54;32.70;99377.63;3108521;28;19936;-68
2023/03/06 08:04:08;;;;;;;;;;;;;;;17.77;32.98;99384.50;3107326;28;19926;-66